Westport, Kentucky
Current Conditions -  °F | °C
As of 11:33 AM on Friday 19 Dec 2014 (Local Time) from KIMS Reporting Station
Overcast Overcast  
Wind Chill: 28°   Ceiling: 1400
Heat Index: 28°   Visibility: 10mi
Dew Point: 21°   Wind: 3mph
Humidity: 74%   Direction: 340°NNW
Pressure: 30.3"   Gusts: NA
Location:  38.48°N, 85.47°W
Report Text: KIMS 191633Z AUTO 34003KT 10SM OVC014 M02/M06 A3030 RMK AO1
Loading
Personal Weather Stations






























Interactive Weather Map New forecast layout! Learn more

10-Day Weather Forecast

Advertisements
Track Severe Weather on mobile